createdAt,value
2018-10-01T00:00:45.512Z,12.26
2018-10-01T00:03:14.687Z,12.28
2018-10-01T00:05:43.991Z,12.32
2018-10-01T00:08:12.551Z,12.34
2018-10-01T00:10:41.279Z,12.31
2018-10-01T00:13:10.222Z,12.33
2018-10-01T00:15:38.867Z,12.22
2018-10-01T00:18:07.663Z,12.41
2018-10-01T00:20:42.078Z,12.31
2018-10-01T00:23:10.918Z,12.30
2018-10-01T00:25:39.950Z,12.31
2018-10-01T00:28:08.937Z,12.16
2018-10-01T00:30:37.700Z,12.19
2018-10-01T00:33:06.478Z,12.20
2018-10-01T00:35:35.247Z,12.25
2018-10-01T00:38:03.906Z,12.21
2018-10-01T00:40:32.539Z,12.18
2018-10-01T00:43:01.266Z,12.23
2018-10-01T00:45:30.115Z,12.29
2018-10-01T00:47:58.855Z,12.17
2018-10-01T00:50:27.666Z,12.20
2018-10-01T00:52:56.581Z,12.07
2018-10-01T00:55:25.514Z,12.19
2018-10-01T00:57:54.972Z,12.10
2018-10-01T01:00:23.661Z,12.07
2018-10-01T01:02:52.739Z,12.09
2018-10-01T01:05:22.030Z,12.18
2018-10-01T01:07:50.730Z,12.12
2018-10-01T01:10:19.506Z,12.10
2018-10-01T01:12:48.447Z,12.13
2018-10-01T01:15:17.538Z,12.04
2018-10-01T01:17:46.429Z,12.10
2018-10-01T01:20:15.508Z,12.15
2018-10-01T01:22:44.299Z,12.25
2018-10-01T01:25:13.319Z,12.35
2018-10-01T01:27:42.304Z,12.36
2018-10-01T01:30:11.186Z,12.31
2018-10-01T01:32:40.182Z,12.30
2018-10-01T01:35:09.094Z,12.45
2018-10-01T01:37:37.838Z,12.48
2018-10-01T01:40:06.549Z,12.54
2018-10-01T01:42:35.574Z,12.52
2018-10-01T01:45:04.511Z,12.59
2018-10-01T01:47:33.606Z,12.68
2018-10-01T01:50:02.923Z,12.69
2018-10-01T01:52:31.980Z,12.66
2018-10-01T01:55:00.935Z,12.44
2018-10-01T01:57:29.943Z,12.52
2018-10-01T01:59:58.757Z,12.68
2018-10-01T02:02:27.581Z,12.62
2018-10-01T02:04:56.819Z,12.62
2018-10-01T02:07:25.434Z,12.53
2018-10-01T02:09:54.051Z,12.69
2018-10-01T02:12:22.710Z,12.64
2018-10-01T02:14:51.791Z,12.50
2018-10-01T02:17:20.857Z,12.57
2018-10-01T02:19:49.756Z,12.69
2018-10-01T02:22:18.445Z,12.58
2018-10-01T02:24:47.236Z,12.76
2018-10-01T02:27:16.153Z,12.99
2018-10-01T02:29:45.207Z,12.88
2018-10-01T02:32:14.030Z,12.66
2018-10-01T02:34:43.128Z,12.72
2018-10-01T02:37:11.951Z,12.81
2018-10-01T02:39:40.687Z,12.98
2018-10-01T02:42:09.638Z,12.98
2018-10-01T02:44:38.355Z,13.08
2018-10-01T02:47:07.276Z,12.99
2018-10-01T02:49:36.366Z,13.17
2018-10-01T02:52:10.307Z,13.07
2018-10-01T02:54:39.974Z,13.10
2018-10-01T02:57:08.927Z,13.16
2018-10-01T02:59:38.096Z,13.23
2018-10-01T03:02:07.157Z,13.28
2018-10-01T03:04:36.145Z,13.12
2018-10-01T03:07:04.864Z,13.30
2018-10-01T03:09:33.799Z,13.24
2018-10-01T03:12:02.562Z,13.31
2018-10-01T03:14:31.237Z,13.30
2018-10-01T03:17:00.222Z,13.18
2018-10-01T03:19:29.073Z,12.75
2018-10-01T03:21:57.978Z,12.91
2018-10-01T03:24:27.016Z,12.22
2018-10-01T03:26:55.840Z,12.80
2018-10-01T03:29:24.670Z,13.13
2018-10-01T03:31:54.007Z,13.16
2018-10-01T03:34:23.027Z,12.94
2018-10-01T03:36:51.671Z,13.14
2018-10-01T03:39:21.052Z,13.17
2018-10-01T03:41:49.771Z,13.02
2018-10-01T03:44:18.808Z,12.93
2018-10-01T03:46:47.948Z,13.23
2018-10-01T03:49:16.600Z,13.18
2018-10-01T03:51:45.444Z,13.09
2018-10-01T03:54:14.507Z,13.12
2018-10-01T03:56:43.347Z,13.14
2018-10-01T03:59:12.198Z,13.00
2018-10-01T04:01:41.447Z,12.96
2018-10-01T04:04:10.198Z,13.10
2018-10-01T04:06:38.942Z,13.05
2018-10-01T04:09:08.787Z,12.93
2018-10-01T04:11:37.522Z,12.95
2018-10-01T04:14:06.442Z,12.94
2018-10-01T04:16:36.017Z,12.97
2018-10-01T04:19:04.834Z,13.10
2018-10-01T04:21:33.555Z,13.17
2018-10-01T04:24:02.938Z,12.89
2018-10-01T04:26:31.646Z,12.81
2018-10-01T04:29:00.911Z,12.91
2018-10-01T04:31:30.018Z,13.02
2018-10-01T04:33:59.066Z,13.02
2018-10-01T04:36:28.077Z,13.09
2018-10-01T04:38:57.005Z,12.94
2018-10-01T04:41:25.944Z,12.88
2018-10-01T04:43:54.670Z,13.04
2018-10-01T04:46:23.741Z,13.02
2018-10-01T04:48:52.549Z,12.99
2018-10-01T04:51:21.248Z,12.93
2018-10-01T04:53:50.359Z,13.03
2018-10-01T04:56:19.427Z,12.69
2018-10-01T04:58:48.598Z,12.97
2018-10-01T05:01:17.745Z,13.05
2018-10-01T05:03:46.698Z,12.97
2018-10-01T05:06:16.102Z,13.02
2018-10-01T05:08:45.033Z,13.05
2018-10-01T05:11:13.763Z,12.80
2018-10-01T05:13:42.873Z,12.47
2018-10-01T05:16:12.011Z,12.79
2018-10-01T05:18:40.918Z,12.91
2018-10-01T05:21:09.582Z,13.05
2018-10-01T05:23:38.624Z,13.01
2018-10-01T05:26:07.451Z,13.00
2018-10-01T05:28:36.357Z,13.11
2018-10-01T05:31:05.367Z,13.42
2018-10-01T05:33:34.386Z,13.13
2018-10-01T05:36:03.451Z,13.42
2018-10-01T05:38:32.531Z,13.31
2018-10-01T05:41:01.172Z,13.21
2018-10-01T05:43:29.858Z,13.38
2018-10-01T05:45:58.820Z,13.64
2018-10-01T05:48:27.685Z,13.44
2018-10-01T05:50:56.578Z,13.12
2018-10-01T05:53:25.764Z,13.26
2018-10-01T05:55:54.967Z,13.71
2018-10-01T05:58:23.676Z,13.85
2018-10-01T06:00:52.807Z,13.59
2018-10-01T06:03:21.487Z,14.01
2018-10-01T06:05:50.416Z,13.91
2018-10-01T06:08:19.662Z,13.73
2018-10-01T06:10:48.255Z,13.91
2018-10-01T06:13:16.943Z,13.86
2018-10-01T06:15:45.605Z,14.06
2018-10-01T06:18:14.386Z,13.99
2018-10-01T06:20:43.379Z,14.03
2018-10-01T06:23:12.192Z,14.16
2018-10-01T06:25:41.255Z,13.90
2018-10-01T06:28:10.568Z,13.79
2018-10-01T06:30:39.590Z,13.64
2018-10-01T06:33:08.814Z,14.01
2018-10-01T06:35:37.941Z,13.92
2018-10-01T06:38:07.067Z,14.23
2018-10-01T06:40:35.689Z,14.28
2018-10-01T06:43:04.412Z,14.25
2018-10-01T06:45:33.438Z,14.13
2018-10-01T06:48:02.406Z,13.95
2018-10-01T06:50:31.090Z,14.13
2018-10-01T06:53:01.184Z,13.77
2018-10-01T06:55:30.636Z,13.44
2018-10-01T06:57:59.257Z,13.31
2018-10-01T07:00:28.635Z,13.37
2018-10-01T07:02:57.824Z,13.09
2018-10-01T07:05:26.736Z,13.38
2018-10-01T07:07:55.724Z,13.16
2018-10-01T07:10:24.423Z,13.21
2018-10-01T07:12:53.169Z,13.44
2018-10-01T07:15:22.228Z,13.31
2018-10-01T07:17:51.181Z,13.54
2018-10-01T07:20:20.147Z,13.70
2018-10-01T07:22:49.399Z,13.54
2018-10-01T07:25:18.322Z,13.52
2018-10-01T07:27:47.241Z,13.53
2018-10-01T07:30:16.219Z,13.92
2018-10-01T07:32:44.905Z,13.97
2018-10-01T07:35:13.634Z,14.19
2018-10-01T07:37:42.535Z,14.28
2018-10-01T07:40:11.279Z,14.31
2018-10-01T07:42:40.078Z,14.88
2018-10-01T07:45:08.784Z,15.13
2018-10-01T07:47:37.682Z,15.22
2018-10-01T07:50:07.194Z,15.72
2018-10-01T07:52:36.094Z,15.72
2018-10-01T07:55:05.472Z,15.70
2018-10-01T07:57:34.219Z,15.81
2018-10-01T08:00:03.195Z,16.00
2018-10-01T08:02:31.663Z,16.37
2018-10-01T08:05:00.570Z,16.71
2018-10-01T08:07:30.006Z,16.45
2018-10-01T08:09:58.679Z,16.75
2018-10-01T08:12:27.370Z,16.84
2018-10-01T08:14:56.098Z,16.98
2018-10-01T08:17:25.073Z,17.08
2018-10-01T08:19:53.925Z,17.02
2018-10-01T08:22:22.783Z,16.51
2018-10-01T08:24:51.766Z,16.89
2018-10-01T08:27:20.910Z,16.66
2018-10-01T08:29:49.931Z,16.75
2018-10-01T08:32:19.007Z,16.87
2018-10-01T08:34:48.070Z,16.90
2018-10-01T08:37:16.936Z,17.47
2018-10-01T08:39:45.654Z,17.57
2018-10-01T08:42:14.405Z,17.71
2018-10-01T08:44:42.978Z,17.41
2018-10-01T08:47:11.705Z,17.25
2018-10-01T08:49:45.551Z,17.83
2018-10-01T08:52:26.958Z,17.10
2018-10-01T08:54:56.143Z,17.25
2018-10-01T08:57:24.809Z,17.64
2018-10-01T08:59:53.569Z,18.04
2018-10-01T09:02:22.465Z,18.38
2018-10-01T09:04:51.218Z,17.86
2018-10-01T09:07:20.208Z,18.03
2018-10-01T09:09:48.840Z,18.12
2018-10-01T09:12:17.713Z,18.73
2018-10-01T09:14:46.870Z,19.05
2018-10-01T09:17:15.949Z,19.13
2018-10-01T09:19:44.786Z,19.27
2018-10-01T09:22:13.811Z,18.96
2018-10-01T09:24:42.862Z,19.58
2018-10-01T09:27:11.754Z,19.68
2018-10-01T09:29:40.780Z,19.94
2018-10-01T09:32:09.460Z,19.85
2018-10-01T09:34:38.478Z,19.91
2018-10-01T09:37:07.636Z,19.97
2018-10-01T09:39:36.468Z,20.17
2018-10-01T09:42:05.458Z,19.80
2018-10-01T09:44:34.094Z,20.16
2018-10-01T09:47:02.940Z,20.17
2018-10-01T09:49:31.874Z,20.25
2018-10-01T09:52:00.945Z,20.39
2018-10-01T09:54:29.662Z,20.63
2018-10-01T09:56:58.607Z,20.58
2018-10-01T09:59:27.419Z,20.62
2018-10-01T10:01:56.516Z,20.60
2018-10-01T10:04:25.438Z,20.67
2018-10-01T10:06:54.349Z,20.73
2018-10-01T10:09:23.203Z,20.70
2018-10-01T10:11:52.375Z,20.67
2018-10-01T10:14:21.169Z,20.44
2018-10-01T10:16:50.381Z,20.56
2018-10-01T10:19:18.966Z,20.71
2018-10-01T10:21:47.859Z,20.75
2018-10-01T10:24:16.610Z,21.09
2018-10-01T10:26:45.298Z,20.94
2018-10-01T10:29:14.226Z,21.13
2018-10-01T10:31:43.069Z,21.31
2018-10-01T10:34:12.133Z,21.52
2018-10-01T10:36:40.993Z,21.78
2018-10-01T10:39:11.863Z,21.81
2018-10-01T10:41:40.765Z,21.41
2018-10-01T10:44:09.519Z,21.85
2018-10-01T10:46:38.307Z,21.99
2018-10-01T10:49:07.266Z,22.26
2018-10-01T10:51:36.514Z,22.64
2018-10-01T10:54:05.139Z,22.88
2018-10-01T10:56:34.112Z,23.07
2018-10-01T10:59:03.138Z,23.23
2018-10-01T11:01:31.930Z,23.53
2018-10-01T11:04:00.893Z,23.20
2018-10-01T11:06:29.817Z,23.84
2018-10-01T11:08:58.779Z,23.63
2018-10-01T11:11:27.451Z,23.92
2018-10-01T11:13:56.127Z,23.78
2018-10-01T11:16:24.707Z,23.95
2018-10-01T11:18:53.715Z,24.11
2018-10-01T11:21:22.567Z,24.50
2018-10-01T11:23:51.679Z,24.67
2018-10-01T11:26:20.781Z,24.93
2018-10-01T11:28:49.584Z,25.00
2018-10-01T11:31:18.758Z,24.95
2018-10-01T11:33:47.730Z,25.06
2018-10-01T11:36:16.777Z,25.22
2018-10-01T11:38:45.714Z,25.25
2018-10-01T11:41:14.764Z,25.01
2018-10-01T11:43:43.496Z,24.91
2018-10-01T11:46:12.367Z,25.49
2018-10-01T11:48:41.122Z,25.63
2018-10-01T11:51:10.362Z,25.51
2018-10-01T11:53:39.335Z,25.64
2018-10-01T11:56:09.127Z,25.86
2018-10-01T11:58:38.006Z,26.19
2018-10-01T12:01:07.226Z,26.08
2018-10-01T12:03:36.361Z,26.53
2018-10-01T12:06:05.378Z,26.27
2018-10-01T12:08:34.228Z,26.23
2018-10-01T12:11:02.874Z,26.41
2018-10-01T12:13:31.446Z,26.53
2018-10-01T12:16:00.267Z,26.85
2018-10-01T12:18:28.935Z,26.41
2018-10-01T12:20:57.797Z,26.64
2018-10-01T12:23:26.857Z,26.75
2018-10-01T12:25:55.888Z,27.05
2018-10-01T12:28:24.527Z,27.31
2018-10-01T12:30:53.355Z,27.70
2018-10-01T12:33:22.290Z,27.65
2018-10-01T12:35:51.151Z,27.87
2018-10-01T12:38:22.874Z,27.38
2018-10-01T12:40:58.071Z,27.87
2018-10-01T12:43:27.466Z,28.31
2018-10-01T12:45:56.236Z,28.47
2018-10-01T12:48:25.516Z,28.46
2018-10-01T12:50:54.595Z,27.99
2018-10-01T12:53:23.220Z,27.99
2018-10-01T12:55:52.175Z,28.42
2018-10-01T12:58:21.230Z,28.85
2018-10-01T13:00:50.083Z,28.48
2018-10-01T13:03:19.591Z,28.58
2018-10-01T13:05:48.521Z,28.16
2018-10-01T13:08:17.160Z,28.31
2018-10-01T13:10:46.146Z,28.10
2018-10-01T13:13:15.137Z,27.95
2018-10-01T13:15:43.850Z,27.79
2018-10-01T13:18:12.724Z,27.63
2018-10-01T13:20:41.587Z,27.29
2018-10-01T13:23:10.558Z,27.38
2018-10-01T13:25:39.314Z,27.08
2018-10-01T13:28:08.452Z,26.38
2018-10-01T13:30:37.582Z,26.30
2018-10-01T13:33:06.922Z,26.23
2018-10-01T13:35:35.670Z,25.56
2018-10-01T13:38:04.354Z,25.49
2018-10-01T13:40:33.464Z,25.26
2018-10-01T13:43:02.741Z,25.44
2018-10-01T13:45:31.547Z,25.23
2018-10-01T13:48:00.293Z,25.37
2018-10-01T13:50:29.098Z,25.37
2018-10-01T13:52:58.221Z,25.43
2018-10-01T13:55:27.122Z,25.81
2018-10-01T13:57:56.048Z,25.73
2018-10-01T14:00:25.141Z,25.59
2018-10-01T14:02:54.034Z,25.57
2018-10-01T14:05:22.923Z,25.84
2018-10-01T14:07:52.158Z,25.63
2018-10-01T14:10:20.929Z,25.62
2018-10-01T14:12:49.686Z,25.95
2018-10-01T14:15:18.411Z,26.13
2018-10-01T14:17:47.370Z,25.88
2018-10-01T14:20:16.112Z,26.01
2018-10-01T14:22:45.011Z,26.36
2018-10-01T14:25:14.028Z,26.21
2018-10-01T14:27:43.034Z,26.73
2018-10-01T14:30:12.116Z,27.01
2018-10-01T14:32:40.981Z,27.26
2018-10-01T14:35:09.998Z,27.42
2018-10-01T14:37:39.445Z,27.76
2018-10-01T14:40:08.731Z,28.02
2018-10-01T14:42:37.433Z,27.66
2018-10-01T14:45:06.845Z,28.16
2018-10-01T14:47:35.986Z,28.02
2018-10-01T14:50:04.690Z,28.19
2018-10-01T14:52:33.398Z,27.92
2018-10-01T14:55:02.609Z,27.82
2018-10-01T14:57:31.551Z,27.89
2018-10-01T15:00:00.561Z,27.83
2018-10-01T15:02:29.480Z,27.75
2018-10-01T15:04:58.186Z,27.76
2018-10-01T15:07:27.161Z,27.72
2018-10-01T15:09:56.380Z,27.65
2018-10-01T15:12:25.249Z,27.28
2018-10-01T15:14:53.934Z,26.87
2018-10-01T15:17:22.766Z,26.93
2018-10-01T15:19:51.638Z,26.66
2018-10-01T15:22:20.576Z,27.01
2018-10-01T15:24:50.064Z,26.47
2018-10-01T15:27:19.315Z,26.68
2018-10-01T15:29:48.269Z,26.33
2018-10-01T15:32:17.275Z,26.28
2018-10-01T15:34:46.591Z,26.06
2018-10-01T15:37:15.590Z,25.68
2018-10-01T15:39:44.709Z,25.62
2018-10-01T15:42:13.376Z,25.20
2018-10-01T15:44:41.989Z,24.45
2018-10-01T15:47:10.851Z,23.83
2018-10-01T15:49:39.686Z,23.19
2018-10-01T15:52:08.589Z,22.64
2018-10-01T15:54:37.731Z,22.07
2018-10-01T15:57:06.887Z,21.97
2018-10-01T15:59:35.822Z,21.27
2018-10-01T16:02:04.762Z,21.11
2018-10-01T16:04:33.895Z,21.03
2018-10-01T16:07:02.765Z,20.61
2018-10-01T16:09:31.855Z,20.45
2018-10-01T16:12:00.651Z,20.22
2018-10-01T16:14:29.738Z,19.72
2018-10-01T16:16:58.892Z,19.63
2018-10-01T16:19:27.869Z,19.36
2018-10-01T16:21:56.654Z,19.10
2018-10-01T16:24:25.779Z,19.00
2018-10-01T16:26:54.590Z,18.91
2018-10-01T16:29:23.291Z,18.86
2018-10-01T16:31:52.827Z,18.75
2018-10-01T16:34:21.448Z,18.70
2018-10-01T16:36:50.270Z,18.59
2018-10-01T16:39:19.596Z,18.47
2018-10-01T16:41:48.326Z,18.43
2018-10-01T16:44:17.084Z,18.28
2018-10-01T16:46:48.260Z,18.09
2018-10-01T16:49:17.235Z,17.99
2018-10-01T16:51:46.413Z,18.01
2018-10-01T16:54:15.731Z,17.90
2018-10-01T16:56:44.871Z,17.87
2018-10-01T16:59:13.658Z,17.79
2018-10-01T17:01:42.780Z,17.67
2018-10-01T17:04:11.583Z,17.55
2018-10-01T17:06:40.350Z,17.47
2018-10-01T17:09:10.189Z,17.31
2018-10-01T17:11:38.827Z,17.33
2018-10-01T17:14:07.491Z,17.28
2018-10-01T17:16:36.434Z,17.17
2018-10-01T17:19:05.874Z,17.15
2018-10-01T17:21:34.824Z,17.02
2018-10-01T17:24:03.786Z,17.03
2018-10-01T17:26:32.550Z,16.99
2018-10-01T17:29:01.344Z,16.79
2018-10-01T17:31:30.239Z,16.75
2018-10-01T17:33:59.367Z,16.82
2018-10-01T17:36:28.730Z,16.67
2018-10-01T17:38:57.466Z,16.74
2018-10-01T17:41:26.370Z,16.65
2018-10-01T17:43:55.024Z,16.62
2018-10-01T17:46:23.642Z,16.58
2018-10-01T17:48:52.879Z,16.59
2018-10-01T17:51:21.796Z,16.52
2018-10-01T17:53:50.440Z,16.36
2018-10-01T17:56:19.741Z,16.41
2018-10-01T17:58:48.804Z,16.35
2018-10-01T18:01:17.451Z,16.24
2018-10-01T18:03:46.438Z,16.26
2018-10-01T18:06:15.242Z,16.23
2018-10-01T18:08:43.906Z,16.16
2018-10-01T18:11:12.558Z,16.07
2018-10-01T18:13:41.579Z,16.04
2018-10-01T18:16:10.465Z,16.11
2018-10-01T18:18:39.247Z,16.07
2018-10-01T18:21:08.171Z,16.07
2018-10-01T18:23:37.306Z,16.09
2018-10-01T18:26:06.374Z,16.07
2018-10-01T18:28:35.538Z,16.18
2018-10-01T18:31:04.418Z,16.16
2018-10-01T18:33:33.279Z,16.08
2018-10-01T18:36:02.405Z,15.75
2018-10-01T18:38:31.348Z,15.43
2018-10-01T18:40:59.990Z,15.24
2018-10-01T18:43:29.052Z,15.13
2018-10-01T18:45:57.737Z,15.05
2018-10-01T18:48:26.502Z,15.12
2018-10-01T18:50:55.766Z,15.14
2018-10-01T18:53:24.692Z,15.37
2018-10-01T18:55:53.778Z,15.60
2018-10-01T18:58:22.671Z,15.55
2018-10-01T19:00:51.668Z,15.54
2018-10-01T19:03:20.579Z,15.63
2018-10-01T19:05:49.682Z,15.63
2018-10-01T19:08:18.708Z,15.48
2018-10-01T19:10:47.475Z,15.12
2018-10-01T19:13:16.448Z,15.23
2018-10-01T19:15:45.350Z,15.46
2018-10-01T19:18:14.312Z,15.42
2018-10-01T19:20:43.221Z,15.57
2018-10-01T19:23:12.326Z,15.66
2018-10-01T19:25:41.064Z,15.69
2018-10-01T19:28:10.478Z,15.81
2018-10-01T19:30:39.095Z,15.82
2018-10-01T19:33:08.026Z,15.76
2018-10-01T19:35:37.180Z,15.86
2018-10-01T19:38:05.846Z,15.95
2018-10-01T19:40:34.579Z,15.87
2018-10-01T19:43:03.555Z,15.95
2018-10-01T19:45:32.702Z,15.97
2018-10-01T19:48:01.320Z,15.98
2018-10-01T19:50:30.654Z,15.85
2018-10-01T19:53:00.111Z,16.04
2018-10-01T19:55:28.678Z,15.94
2018-10-01T19:57:57.504Z,15.85
2018-10-01T20:00:26.492Z,15.74
2018-10-01T20:02:55.250Z,15.71
2018-10-01T20:05:24.172Z,15.71
2018-10-01T20:07:53.027Z,15.72
2018-10-01T20:10:21.932Z,15.71
2018-10-01T20:12:50.546Z,15.67
2018-10-01T20:15:19.598Z,15.60
2018-10-01T20:17:49.053Z,15.52
2018-10-01T20:20:18.604Z,15.40
2018-10-01T20:22:47.621Z,15.36
2018-10-01T20:25:16.620Z,15.28
2018-10-01T20:27:45.712Z,15.23
2018-10-01T20:30:14.641Z,15.16
2018-10-01T20:32:43.269Z,15.08
2018-10-01T20:35:12.439Z,15.00
2018-10-01T20:37:41.396Z,14.94
2018-10-01T20:40:10.343Z,14.88
2018-10-01T20:42:39.178Z,14.81
2018-10-01T20:45:08.176Z,14.74
2018-10-01T20:47:36.944Z,14.67
2018-10-01T20:50:06.326Z,14.59
2018-10-01T20:52:35.412Z,14.59
2018-10-01T20:55:04.179Z,14.52
2018-10-01T20:57:33.410Z,14.47
2018-10-01T21:00:02.334Z,14.31
2018-10-01T21:02:31.426Z,14.22
2018-10-01T21:05:00.641Z,14.37
2018-10-01T21:07:29.478Z,14.41
2018-10-01T21:09:58.114Z,14.43
2018-10-01T21:12:27.108Z,14.41
2018-10-01T21:14:55.878Z,14.33
2018-10-01T21:17:24.759Z,14.11
2018-10-01T21:19:53.352Z,14.25
2018-10-01T21:22:22.455Z,14.26
2018-10-01T21:24:51.770Z,14.11
2018-10-01T21:27:20.744Z,14.15
2018-10-01T21:29:49.470Z,14.18
2018-10-01T21:32:18.670Z,14.07
2018-10-01T21:34:47.427Z,14.01
2018-10-01T21:37:16.210Z,13.90
2018-10-01T21:40:17.486Z,13.82
2018-10-01T21:42:46.531Z,13.65
2018-10-01T21:45:17.138Z,13.71
2018-10-01T21:47:46.171Z,13.63
2018-10-01T21:50:14.965Z,13.76
2018-10-01T21:52:43.707Z,13.70
2018-10-01T21:55:12.446Z,13.64
2018-10-01T21:57:41.483Z,13.55
2018-10-01T22:00:11.254Z,13.49
2018-10-01T22:02:40.552Z,13.54
2018-10-01T22:05:09.549Z,13.54
2018-10-01T22:07:38.555Z,13.57
2018-10-01T22:10:07.336Z,13.49
2018-10-01T22:12:36.028Z,13.34
2018-10-01T22:15:05.367Z,13.41
2018-10-01T22:17:34.006Z,13.57
2018-10-01T22:20:02.743Z,13.08
2018-10-01T22:22:31.762Z,13.58
2018-10-01T22:25:00.584Z,13.55
2018-10-01T22:27:29.407Z,13.63
2018-10-01T22:29:58.089Z,13.68
2018-10-01T22:32:27.083Z,13.76
2018-10-01T22:34:56.147Z,13.74
2018-10-01T22:37:25.156Z,13.67
2018-10-01T22:39:53.972Z,13.67
2018-10-01T22:42:22.739Z,13.62
2018-10-01T22:44:51.770Z,13.61
2018-10-01T22:47:20.501Z,13.58
2018-10-01T22:49:49.259Z,13.39
2018-10-01T22:52:18.418Z,13.20
2018-10-01T22:54:47.469Z,13.17
2018-10-01T22:57:16.403Z,13.01
2018-10-01T22:59:45.372Z,12.83
2018-10-01T23:02:14.435Z,12.59
2018-10-01T23:04:43.441Z,12.40
2018-10-01T23:07:12.561Z,12.23
2018-10-01T23:09:41.207Z,12.08
2018-10-01T23:12:09.850Z,11.92
2018-10-01T23:14:38.533Z,12.25
2018-10-01T23:17:07.703Z,12.51
2018-10-01T23:19:36.489Z,12.41
2018-10-01T23:22:05.913Z,11.95
2018-10-01T23:24:34.693Z,12.00
2018-10-01T23:27:03.428Z,12.22
2018-10-01T23:29:32.243Z,12.30
2018-10-01T23:32:01.060Z,12.19
2018-10-01T23:34:29.872Z,12.00
2018-10-01T23:36:58.854Z,11.98
2018-10-01T23:39:27.550Z,12.04
2018-10-01T23:41:56.226Z,12.26
2018-10-01T23:44:24.934Z,12.14
2018-10-01T23:46:53.721Z,12.20
2018-10-01T23:49:22.511Z,11.96
2018-10-01T23:51:51.591Z,11.66
2018-10-01T23:54:20.622Z,11.89
2018-10-01T23:56:49.455Z,12.03
2018-10-01T23:59:18.386Z,11.88
